Flight Briefing for CPX717

Departure Arrival
Miami International Airport (KMIA)
Click to view FAA NOTAMS
General Omar Torrijos International Airport (MPTO)
Click to view FAA NOTAMS
Departure Time Arrival Time
N/A N/A
Aircraft Distance
B767-300BDSF 1007nm
Departure METAR Arrival METAR
KMIA 221253Z 34008KT 10SM CLR 17/11 A3009 RMK AO2 SLP190 T01670111 MPTO 221300Z 31005KT 9999 FEW018 26/20 Q1014 NOSIG
Suggested Route
EONNS2 EONNS A509 URSUS UA301 UCA UG437 MARMA OSUPA


View recent IFR Routes data
Notes



Charts and Procedures

Charts for KMIA
No chart available
Charts for MPTO
No chart available

Windy.com Weather Map